sensor_id;sensor_type;location;lat;lon;timestamp;P1;durP1;ratioP1;P2;durP2;ratioP2
60847;SDS011;46681;47.696;9.140;2022-12-07T00:01:04;14.63;;;11.93;;
60847;SDS011;46681;47.696;9.140;2022-12-07T00:03:31;12.87;;;11.47;;
60847;SDS011;46681;47.696;9.140;2022-12-07T00:05:57;13.37;;;11.57;;
60847;SDS011;46681;47.696;9.140;2022-12-07T00:08:23;13.03;;;11.23;;
60847;SDS011;46681;47.696;9.140;2022-12-07T00:10:49;13.90;;;11.97;;
60847;SDS011;46681;47.696;9.140;2022-12-07T00:13:15;12.47;;;11.17;;
60847;SDS011;46681;47.696;9.140;2022-12-07T00:15:40;12.87;;;11.47;;
60847;SDS011;46681;47.696;9.140;2022-12-07T00:18:06;13.80;;;11.77;;
60847;SDS011;46681;47.696;9.140;2022-12-07T00:20:31;13.03;;;11.60;;
60847;SDS011;46681;47.696;9.140;2022-12-07T00:22:57;12.77;;;11.17;;
60847;SDS011;46681;47.696;9.140;2022-12-07T00:25:22;13.37;;;11.97;;
60847;SDS011;46681;47.696;9.140;2022-12-07T00:27:48;13.27;;;11.87;;
60847;SDS011;46681;47.696;9.140;2022-12-07T00:30:14;13.20;;;11.20;;
60847;SDS011;46681;47.696;9.140;2022-12-07T00:32:39;14.60;;;11.80;;
60847;SDS011;46681;47.696;9.140;2022-12-07T00:35:05;13.23;;;11.53;;
60847;SDS011;46681;47.696;9.140;2022-12-07T00:37:30;12.47;;;11.03;;
60847;SDS011;46681;47.696;9.140;2022-12-07T00:39:56;14.20;;;11.83;;
60847;SDS011;46681;47.696;9.140;2022-12-07T00:42:21;13.23;;;11.93;;
60847;SDS011;46681;47.696;9.140;2022-12-07T00:44:47;12.77;;;11.30;;
60847;SDS011;46681;47.696;9.140;2022-12-07T00:47:12;14.00;;;12.10;;
60847;SDS011;46681;47.696;9.140;2022-12-07T00:49:38;13.53;;;12.07;;
60847;SDS011;46681;47.696;9.140;2022-12-07T00:52:04;13.20;;;11.80;;
60847;SDS011;46681;47.696;9.140;2022-12-07T00:54:29;12.70;;;11.23;;
60847;SDS011;46681;47.696;9.140;2022-12-07T00:56:55;12.93;;;11.53;;
60847;SDS011;46681;47.696;9.140;2022-12-07T00:59:21;12.37;;;11.07;;
60847;SDS011;46681;47.696;9.140;2022-12-07T01:01:49;13.23;;;11.83;;
60847;SDS011;46681;47.696;9.140;2022-12-07T01:04:14;14.03;;;12.47;;
60847;SDS011;46681;47.696;9.140;2022-12-07T01:06:42;13.07;;;11.63;;
60847;SDS011;46681;47.696;9.140;2022-12-07T01:09:07;13.47;;;11.73;;
60847;SDS011;46681;47.696;9.140;2022-12-07T01:11:33;12.30;;;11.00;;
60847;SDS011;46681;47.696;9.140;2022-12-07T01:13:59;13.13;;;11.73;;
60847;SDS011;46681;47.696;9.140;2022-12-07T01:16:25;12.27;;;10.97;;
60847;SDS011;46681;47.696;9.140;2022-12-07T01:18:53;13.10;;;11.70;;
60847;SDS011;46681;47.696;9.140;2022-12-07T01:21:22;14.23;;;12.73;;
60847;SDS011;46681;47.696;9.140;2022-12-07T01:23:50;13.30;;;11.87;;
60847;SDS011;46681;47.696;9.140;2022-12-07T01:26:17;12.57;;;11.17;;
60847;SDS011;46681;47.696;9.140;2022-12-07T01:28:47;13.23;;;11.73;;
60847;SDS011;46681;47.696;9.140;2022-12-07T01:31:14;13.77;;;12.33;;
60847;SDS011;46681;47.696;9.140;2022-12-07T01:33:44;13.17;;;11.63;;
60847;SDS011;46681;47.696;9.140;2022-12-07T01:36:16;12.87;;;10.77;;
60847;SDS011;46681;47.696;9.140;2022-12-07T01:38:43;13.53;;;12.13;;
60847;SDS011;46681;47.696;9.140;2022-12-07T01:41:10;13.37;;;11.43;;
60847;SDS011;46681;47.696;9.140;2022-12-07T01:43:36;13.97;;;11.37;;
60847;SDS011;46681;47.696;9.140;2022-12-07T01:46:24;12.37;;;11.07;;
60847;SDS011;46681;47.696;9.140;2022-12-07T01:48:51;12.53;;;11.33;;
60847;SDS011;46681;47.696;9.140;2022-12-07T01:51:17;13.40;;;11.50;;
60847;SDS011;46681;47.696;9.140;2022-12-07T01:53:43;12.57;;;11.20;;
60847;SDS011;46681;47.696;9.140;2022-12-07T01:56:11;12.73;;;11.43;;
60847;SDS011;46681;47.696;9.140;2022-12-07T01:58:45;12.57;;;11.27;;
60847;SDS011;46681;47.696;9.140;2022-12-07T02:01:12;13.03;;;11.60;;
60847;SDS011;46681;47.696;9.140;2022-12-07T02:03:39;11.73;;;10.53;;
60847;SDS011;46681;47.696;9.140;2022-12-07T02:06:06;13.17;;;11.97;;
60847;SDS011;46681;47.696;9.140;2022-12-07T02:08:33;12.57;;;11.27;;
60847;SDS011;46681;47.696;9.140;2022-12-07T02:11:00;12.07;;;10.77;;
60847;SDS011;46681;47.696;9.140;2022-12-07T02:13:30;12.77;;;11.27;;
60847;SDS011;46681;47.696;9.140;2022-12-07T02:26:47;12.73;;;11.27;;
60847;SDS011;46681;47.696;9.140;2022-12-07T02:29:49;11.97;;;10.77;;
60847;SDS011;46681;47.696;9.140;2022-12-07T02:35:38;13.47;;;12.07;;
60847;SDS011;46681;47.696;9.140;2022-12-07T02:40:35;13.03;;;11.47;;
60847;SDS011;46681;47.696;9.140;2022-12-07T02:45:39;13.27;;;11.97;;
60847;SDS011;46681;47.696;9.140;2022-12-07T02:48:06;12.77;;;11.47;;
60847;SDS011;46681;47.696;9.140;2022-12-07T02:50:35;13.47;;;11.63;;
60847;SDS011;46681;47.696;9.140;2022-12-07T02:53:01;12.70;;;11.40;;
60847;SDS011;46681;47.696;9.140;2022-12-07T02:55:33;12.40;;;11.10;;
60847;SDS011;46681;47.696;9.140;2022-12-07T03:00:59;13.20;;;11.80;;
60847;SDS011;46681;47.696;9.140;2022-12-07T03:03:34;12.13;;;10.87;;
60847;SDS011;46681;47.696;9.140;2022-12-07T03:09:04;15.07;;;11.83;;
60847;SDS011;46681;47.696;9.140;2022-12-07T03:14:29;13.80;;;12.03;;
60847;SDS011;46681;47.696;9.140;2022-12-07T03:19:36;15.53;;;13.17;;
60847;SDS011;46681;47.696;9.140;2022-12-07T03:22:03;14.00;;;12.07;;
60847;SDS011;46681;47.696;9.140;2022-12-07T03:24:54;15.00;;;11.83;;
60847;SDS011;46681;47.696;9.140;2022-12-07T03:27:29;12.43;;;11.10;;
60847;SDS011;46681;47.696;9.140;2022-12-07T03:30:07;14.23;;;12.27;;
60847;SDS011;46681;47.696;9.140;2022-12-07T03:32:52;13.93;;;12.43;;
60847;SDS011;46681;47.696;9.140;2022-12-07T03:35:25;14.23;;;12.37;;
60847;SDS011;46681;47.696;9.140;2022-12-07T03:38:18;13.97;;;11.93;;
60847;SDS011;46681;47.696;9.140;2022-12-07T03:43:35;13.53;;;11.97;;
60847;SDS011;46681;47.696;9.140;2022-12-07T03:52:00;14.87;;;11.97;;
60847;SDS011;46681;47.696;9.140;2022-12-07T03:54:34;13.60;;;12.20;;
60847;SDS011;46681;47.696;9.140;2022-12-07T03:57:03;14.80;;;12.73;;
60847;SDS011;46681;47.696;9.140;2022-12-07T03:59:30;14.30;;;12.80;;
60847;SDS011;46681;47.696;9.140;2022-12-07T04:01:56;18.57;;;12.80;;
60847;SDS011;46681;47.696;9.140;2022-12-07T04:04:26;14.47;;;12.07;;
60847;SDS011;46681;47.696;9.140;2022-12-07T04:06:52;15.40;;;13.43;;
60847;SDS011;46681;47.696;9.140;2022-12-07T04:09:18;16.57;;;13.50;;
60847;SDS011;46681;47.696;9.140;2022-12-07T04:11:43;13.80;;;12.03;;
60847;SDS011;46681;47.696;9.140;2022-12-07T04:14:09;15.33;;;12.63;;
60847;SDS011;46681;47.696;9.140;2022-12-07T04:16:34;14.83;;;12.77;;
60847;SDS011;46681;47.696;9.140;2022-12-07T04:19:01;14.53;;;12.17;;
60847;SDS011;46681;47.696;9.140;2022-12-07T04:21:27;15.17;;;12.87;;
60847;SDS011;46681;47.696;9.140;2022-12-07T04:23:52;13.33;;;11.93;;
60847;SDS011;46681;47.696;9.140;2022-12-07T04:26:19;13.30;;;11.83;;
60847;SDS011;46681;47.696;9.140;2022-12-07T04:28:44;13.47;;;11.93;;
60847;SDS011;46681;47.696;9.140;2022-12-07T04:31:11;14.17;;;11.93;;
60847;SDS011;46681;47.696;9.140;2022-12-07T04:33:36;14.07;;;12.43;;
60847;SDS011;46681;47.696;9.140;2022-12-07T04:36:02;14.83;;;12.73;;
60847;SDS011;46681;47.696;9.140;2022-12-07T04:38:28;14.47;;;12.50;;
60847;SDS011;46681;47.696;9.140;2022-12-07T04:40:57;13.17;;;11.77;;
60847;SDS011;46681;47.696;9.140;2022-12-07T04:43:24;14.40;;;12.37;;
60847;SDS011;46681;47.696;9.140;2022-12-07T04:45:50;14.77;;;11.67;;
60847;SDS011;46681;47.696;9.140;2022-12-07T04:48:17;14.57;;;12.63;;
60847;SDS011;46681;47.696;9.140;2022-12-07T04:50:44;14.40;;;12.37;;
60847;SDS011;46681;47.696;9.140;2022-12-07T04:53:12;13.13;;;11.40;;
60847;SDS011;46681;47.696;9.140;2022-12-07T04:55:43;13.37;;;11.93;;
60847;SDS011;46681;47.696;9.140;2022-12-07T04:58:10;15.13;;;12.53;;
60847;SDS011;46681;47.696;9.140;2022-12-07T05:00:38;15.53;;;12.27;;
60847;SDS011;46681;47.696;9.140;2022-12-07T05:03:05;13.83;;;12.43;;
60847;SDS011;46681;47.696;9.140;2022-12-07T05:05:31;14.67;;;13.03;;
60847;SDS011;46681;47.696;9.140;2022-12-07T05:07:57;14.30;;;12.20;;
60847;SDS011;46681;47.696;9.140;2022-12-07T05:10:23;13.37;;;11.97;;
60847;SDS011;46681;47.696;9.140;2022-12-07T05:12:49;14.63;;;13.00;;
60847;SDS011;46681;47.696;9.140;2022-12-07T05:15:14;14.70;;;12.63;;
60847;SDS011;46681;47.696;9.140;2022-12-07T05:17:41;13.87;;;12.40;;
60847;SDS011;46681;47.696;9.140;2022-12-07T05:20:07;14.20;;;12.27;;
60847;SDS011;46681;47.696;9.140;2022-12-07T05:22:35;15.10;;;12.77;;
60847;SDS011;46681;47.696;9.140;2022-12-07T05:25:00;14.03;;;11.80;;
60847;SDS011;46681;47.696;9.140;2022-12-07T05:27:27;14.37;;;12.60;;
60847;SDS011;46681;47.696;9.140;2022-12-07T05:29:52;13.40;;;12.00;;
60847;SDS011;46681;47.696;9.140;2022-12-07T05:32:18;13.17;;;11.67;;
60847;SDS011;46681;47.696;9.140;2022-12-07T05:34:45;13.97;;;12.53;;
60847;SDS011;46681;47.696;9.140;2022-12-07T05:37:11;13.80;;;11.57;;
60847;SDS011;46681;47.696;9.140;2022-12-07T05:39:37;15.73;;;12.13;;
60847;SDS011;46681;47.696;9.140;2022-12-07T05:42:03;15.47;;;12.63;;
60847;SDS011;46681;47.696;9.140;2022-12-07T05:44:28;12.50;;;11.20;;
60847;SDS011;46681;47.696;9.140;2022-12-07T05:46:54;13.07;;;11.60;;
60847;SDS011;46681;47.696;9.140;2022-12-07T05:49:20;13.90;;;11.73;;
60847;SDS011;46681;47.696;9.140;2022-12-07T05:51:45;14.97;;;12.60;;
60847;SDS011;46681;47.696;9.140;2022-12-07T05:54:13;14.63;;;12.00;;
60847;SDS011;46681;47.696;9.140;2022-12-07T05:56:41;14.37;;;12.43;;
60847;SDS011;46681;47.696;9.140;2022-12-07T05:59:07;14.47;;;12.03;;
60847;SDS011;46681;47.696;9.140;2022-12-07T06:01:34;11.73;;;10.53;;
60847;SDS011;46681;47.696;9.140;2022-12-07T06:04:02;15.23;;;12.40;;
60847;SDS011;46681;47.696;9.140;2022-12-07T06:06:27;14.47;;;12.43;;
60847;SDS011;46681;47.696;9.140;2022-12-07T06:08:57;13.87;;;11.57;;
60847;SDS011;46681;47.696;9.140;2022-12-07T06:11:23;15.60;;;12.30;;
60847;SDS011;46681;47.696;9.140;2022-12-07T06:13:51;17.37;;;13.13;;
60847;SDS011;46681;47.696;9.140;2022-12-07T06:16:18;18.93;;;13.67;;
60847;SDS011;46681;47.696;9.140;2022-12-07T06:18:46;15.10;;;13.17;;
60847;SDS011;46681;47.696;9.140;2022-12-07T06:21:11;14.33;;;11.93;;
60847;SDS011;46681;47.696;9.140;2022-12-07T06:23:38;15.37;;;13.00;;
60847;SDS011;46681;47.696;9.140;2022-12-07T06:26:04;15.90;;;12.23;;
60847;SDS011;46681;47.696;9.140;2022-12-07T06:28:29;16.47;;;13.13;;
60847;SDS011;46681;47.696;9.140;2022-12-07T06:30:58;14.33;;;12.57;;
60847;SDS011;46681;47.696;9.140;2022-12-07T06:33:28;17.13;;;13.47;;
60847;SDS011;46681;47.696;9.140;2022-12-07T06:35:54;19.07;;;13.80;;
60847;SDS011;46681;47.696;9.140;2022-12-07T06:38:20;15.37;;;13.57;;
60847;SDS011;46681;47.696;9.140;2022-12-07T06:40:46;16.07;;;12.93;;
60847;SDS011;46681;47.696;9.140;2022-12-07T06:43:12;17.60;;;14.17;;
60847;SDS011;46681;47.696;9.140;2022-12-07T06:45:37;16.77;;;13.30;;
60847;SDS011;46681;47.696;9.140;2022-12-07T06:48:06;14.27;;;12.20;;
60847;SDS011;46681;47.696;9.140;2022-12-07T06:50:33;15.10;;;12.30;;
60847;SDS011;46681;47.696;9.140;2022-12-07T06:52:59;16.47;;;13.50;;
60847;SDS011;46681;47.696;9.140;2022-12-07T06:55:25;16.33;;;13.73;;
60847;SDS011;46681;47.696;9.140;2022-12-07T06:57:51;14.77;;;12.47;;
60847;SDS011;46681;47.696;9.140;2022-12-07T07:00:16;16.73;;;13.90;;
60847;SDS011;46681;47.696;9.140;2022-12-07T07:02:44;15.50;;;12.83;;
60847;SDS011;46681;47.696;9.140;2022-12-07T07:05:09;16.03;;;13.63;;
60847;SDS011;46681;47.696;9.140;2022-12-07T07:07:35;21.50;;;14.77;;
60847;SDS011;46681;47.696;9.140;2022-12-07T07:10:02;19.03;;;13.30;;
60847;SDS011;46681;47.696;9.140;2022-12-07T07:12:29;17.40;;;13.43;;
60847;SDS011;46681;47.696;9.140;2022-12-07T07:14:57;19.83;;;13.50;;
60847;SDS011;46681;47.696;9.140;2022-12-07T07:17:29;19.00;;;12.37;;
60847;SDS011;46681;47.696;9.140;2022-12-07T07:19:58;14.60;;;12.77;;
60847;SDS011;46681;47.696;9.140;2022-12-07T07:22:23;17.33;;;13.33;;
60847;SDS011;46681;47.696;9.140;2022-12-07T07:24:49;15.77;;;13.10;;
60847;SDS011;46681;47.696;9.140;2022-12-07T07:27:15;15.23;;;13.03;;
60847;SDS011;46681;47.696;9.140;2022-12-07T07:29:42;17.37;;;14.13;;
60847;SDS011;46681;47.696;9.140;2022-12-07T07:32:08;15.37;;;13.20;;
60847;SDS011;46681;47.696;9.140;2022-12-07T07:34:33;16.10;;;12.07;;
60847;SDS011;46681;47.696;9.140;2022-12-07T07:36:59;14.97;;;12.70;;
60847;SDS011;46681;47.696;9.140;2022-12-07T07:39:25;17.07;;;13.30;;
60847;SDS011;46681;47.696;9.140;2022-12-07T07:41:52;15.63;;;12.40;;
60847;SDS011;46681;47.696;9.140;2022-12-07T07:44:18;14.70;;;12.27;;
60847;SDS011;46681;47.696;9.140;2022-12-07T07:46:46;14.63;;;12.20;;
60847;SDS011;46681;47.696;9.140;2022-12-07T07:49:11;14.63;;;12.10;;
60847;SDS011;46681;47.696;9.140;2022-12-07T07:51:37;15.57;;;12.03;;
60847;SDS011;46681;47.696;9.140;2022-12-07T07:54:02;16.73;;;12.53;;
60847;SDS011;46681;47.696;9.140;2022-12-07T07:56:29;15.47;;;12.50;;
60847;SDS011;46681;47.696;9.140;2022-12-07T07:58:57;16.70;;;12.87;;
60847;SDS011;46681;47.696;9.140;2022-12-07T08:01:24;17.07;;;12.67;;
60847;SDS011;46681;47.696;9.140;2022-12-07T08:03:54;15.27;;;12.20;;
60847;SDS011;46681;47.696;9.140;2022-12-07T08:06:25;14.80;;;11.50;;
60847;SDS011;46681;47.696;9.140;2022-12-07T08:08:51;13.77;;;12.23;;
60847;SDS011;46681;47.696;9.140;2022-12-07T08:11:20;13.27;;;11.47;;
60847;SDS011;46681;47.696;9.140;2022-12-07T08:13:46;14.63;;;11.43;;
60847;SDS011;46681;47.696;9.140;2022-12-07T08:16:15;16.60;;;11.80;;
60847;SDS011;46681;47.696;9.140;2022-12-07T08:18:42;13.97;;;11.53;;
60847;SDS011;46681;47.696;9.140;2022-12-07T08:21:18;13.00;;;10.73;;
60847;SDS011;46681;47.696;9.140;2022-12-07T08:23:46;15.27;;;12.37;;
60847;SDS011;46681;47.696;9.140;2022-12-07T08:26:12;14.03;;;10.83;;
60847;SDS011;46681;47.696;9.140;2022-12-07T08:28:42;13.90;;;11.57;;
60847;SDS011;46681;47.696;9.140;2022-12-07T08:31:10;14.57;;;11.67;;
60847;SDS011;46681;47.696;9.140;2022-12-07T08:33:39;12.40;;;11.07;;
60847;SDS011;46681;47.696;9.140;2022-12-07T08:36:09;14.93;;;11.13;;
60847;SDS011;46681;47.696;9.140;2022-12-07T08:38:37;16.80;;;12.80;;
60847;SDS011;46681;47.696;9.140;2022-12-07T08:41:05;15.10;;;12.30;;
60847;SDS011;46681;47.696;9.140;2022-12-07T08:43:32;16.97;;;12.70;;
60847;SDS011;46681;47.696;9.140;2022-12-07T08:48:50;13.63;;;11.43;;
60847;SDS011;46681;47.696;9.140;2022-12-07T08:51:24;15.50;;;12.57;;
60847;SDS011;46681;47.696;9.140;2022-12-07T08:53:55;18.40;;;12.57;;
60847;SDS011;46681;47.696;9.140;2022-12-07T08:56:26;14.30;;;11.90;;
60847;SDS011;46681;47.696;9.140;2022-12-07T08:58:54;14.77;;;12.07;;
60847;SDS011;46681;47.696;9.140;2022-12-07T09:01:20;14.97;;;11.40;;
60847;SDS011;46681;47.696;9.140;2022-12-07T09:03:47;14.27;;;12.37;;
60847;SDS011;46681;47.696;9.140;2022-12-07T09:06:14;15.30;;;11.57;;
60847;SDS011;46681;47.696;9.140;2022-12-07T09:08:41;13.63;;;11.40;;
60847;SDS011;46681;47.696;9.140;2022-12-07T09:11:14;14.90;;;12.00;;
60847;SDS011;46681;47.696;9.140;2022-12-07T09:13:39;11.87;;;10.67;;
60847;SDS011;46681;47.696;9.140;2022-12-07T09:16:05;13.47;;;11.47;;
60847;SDS011;46681;47.696;9.140;2022-12-07T09:18:31;14.17;;;11.23;;
60847;SDS011;46681;47.696;9.140;2022-12-07T09:20:58;14.03;;;11.00;;
60847;SDS011;46681;47.696;9.140;2022-12-07T09:23:23;13.33;;;10.97;;
60847;SDS011;46681;47.696;9.140;2022-12-07T09:25:49;14.23;;;10.67;;
60847;SDS011;46681;47.696;9.140;2022-12-07T09:28:16;13.80;;;11.27;;
60847;SDS011;46681;47.696;9.140;2022-12-07T09:30:46;13.70;;;11.10;;
60847;SDS011;46681;47.696;9.140;2022-12-07T09:33:17;14.87;;;11.40;;
60847;SDS011;46681;47.696;9.140;2022-12-07T09:35:44;14.57;;;10.57;;
60847;SDS011;46681;47.696;9.140;2022-12-07T09:38:11;12.40;;;10.67;;
60847;SDS011;46681;47.696;9.140;2022-12-07T09:40:38;12.77;;;11.07;;
60847;SDS011;46681;47.696;9.140;2022-12-07T09:43:04;11.93;;;10.30;;
60847;SDS011;46681;47.696;9.140;2022-12-07T09:48:00;13.27;;;10.47;;
60847;SDS011;46681;47.696;9.140;2022-12-07T09:50:28;11.57;;;10.17;;
60847;SDS011;46681;47.696;9.140;2022-12-07T09:52:56;11.67;;;10.20;;
60847;SDS011;46681;47.696;9.140;2022-12-07T09:55:33;11.53;;;10.00;;
60847;SDS011;46681;47.696;9.140;2022-12-07T09:58:01;12.20;;;9.90;;
60847;SDS011;46681;47.696;9.140;2022-12-07T10:00:27;12.87;;;10.07;;
60847;SDS011;46681;47.696;9.140;2022-12-07T10:02:59;11.40;;;9.83;;
60847;SDS011;46681;47.696;9.140;2022-12-07T10:05:38;11.43;;;9.63;;
60847;SDS011;46681;47.696;9.140;2022-12-07T10:08:12;11.33;;;10.13;;
60847;SDS011;46681;47.696;9.140;2022-12-07T10:10:39;10.47;;;9.37;;
60847;SDS011;46681;47.696;9.140;2022-12-07T10:13:05;11.17;;;9.77;;
60847;SDS011;46681;47.696;9.140;2022-12-07T10:15:46;11.93;;;9.97;;
60847;SDS011;46681;47.696;9.140;2022-12-07T10:18:31;11.40;;;9.10;;
60847;SDS011;46681;47.696;9.140;2022-12-07T10:21:10;11.20;;;9.37;;
60847;SDS011;46681;47.696;9.140;2022-12-07T10:34:30;9.73;;;8.70;;
60847;SDS011;46681;47.696;9.140;2022-12-07T10:44:47;11.57;;;8.93;;
60847;SDS011;46681;47.696;9.140;2022-12-07T11:01:43;10.53;;;8.80;;
60847;SDS011;46681;47.696;9.140;2022-12-07T11:21:32;9.73;;;8.57;;
60847;SDS011;46681;47.696;9.140;2022-12-07T11:24:20;8.87;;;7.60;;
60847;SDS011;46681;47.696;9.140;2022-12-07T11:27:12;9.07;;;8.10;;
60847;SDS011;46681;47.696;9.140;2022-12-07T11:30:08;11.87;;;8.47;;
60847;SDS011;46681;47.696;9.140;2022-12-07T11:35:33;9.47;;;8.33;;
60847;SDS011;46681;47.696;9.140;2022-12-07T11:38:17;9.43;;;8.30;;
60847;SDS011;46681;47.696;9.140;2022-12-07T11:41:03;9.03;;;7.60;;
60847;SDS011;46681;47.696;9.140;2022-12-07T11:43:32;9.60;;;8.60;;
60847;SDS011;46681;47.696;9.140;2022-12-07T11:46:08;9.93;;;8.40;;
60847;SDS011;46681;47.696;9.140;2022-12-07T11:48:40;8.30;;;6.83;;
60847;SDS011;46681;47.696;9.140;2022-12-07T11:51:14;9.00;;;7.63;;
60847;SDS011;46681;47.696;9.140;2022-12-07T11:56:48;8.70;;;7.07;;
60847;SDS011;46681;47.696;9.140;2022-12-07T11:59:36;8.97;;;7.23;;
60847;SDS011;46681;47.696;9.140;2022-12-07T12:02:13;7.93;;;6.90;;
60847;SDS011;46681;47.696;9.140;2022-12-07T12:05:26;9.53;;;6.77;;
60847;SDS011;46681;47.696;9.140;2022-12-07T12:08:01;7.53;;;6.70;;
60847;SDS011;46681;47.696;9.140;2022-12-07T12:10:42;7.20;;;6.27;;
60847;SDS011;46681;47.696;9.140;2022-12-07T12:13:24;7.83;;;7.10;;
60847;SDS011;46681;47.696;9.140;2022-12-07T12:21:27;7.10;;;6.13;;
60847;SDS011;46681;47.696;9.140;2022-12-07T12:24:04;8.30;;;6.10;;
60847;SDS011;46681;47.696;9.140;2022-12-07T12:26:58;7.87;;;6.87;;
60847;SDS011;46681;47.696;9.140;2022-12-07T12:29:35;8.03;;;7.17;;
60847;SDS011;46681;47.696;9.140;2022-12-07T12:32:07;6.93;;;5.80;;
60847;SDS011;46681;47.696;9.140;2022-12-07T12:34:57;7.13;;;6.10;;
60847;SDS011;46681;47.696;9.140;2022-12-07T12:42:48;6.20;;;5.57;;
60847;SDS011;46681;47.696;9.140;2022-12-07T12:45:23;7.67;;;6.10;;
60847;SDS011;46681;47.696;9.140;2022-12-07T12:47:54;6.73;;;6.03;;
60847;SDS011;46681;47.696;9.140;2022-12-07T12:51:35;5.80;;;5.30;;
60847;SDS011;46681;47.696;9.140;2022-12-07T12:59:41;23.90;;;6.50;;
60847;SDS011;46681;47.696;9.140;2022-12-07T13:04:54;21.80;;;6.20;;
60847;SDS011;46681;47.696;9.140;2022-12-07T13:12:59;11.63;;;6.43;;
60847;SDS011;46681;47.696;9.140;2022-12-07T13:24:11;9.07;;;5.93;;
60847;SDS011;46681;47.696;9.140;2022-12-07T13:31:48;6.87;;;5.50;;
60847;SDS011;46681;47.696;9.140;2022-12-07T13:40:17;7.03;;;4.57;;
60847;SDS011;46681;47.696;9.140;2022-12-07T13:42:56;7.03;;;4.97;;
60847;SDS011;46681;47.696;9.140;2022-12-07T13:45:32;5.53;;;4.90;;
60847;SDS011;46681;47.696;9.140;2022-12-07T13:48:04;7.60;;;5.00;;
60847;SDS011;46681;47.696;9.140;2022-12-07T13:50:31;5.97;;;5.37;;
60847;SDS011;46681;47.696;9.140;2022-12-07T13:53:07;6.10;;;5.23;;
60847;SDS011;46681;47.696;9.140;2022-12-07T13:55:38;7.50;;;4.90;;
60847;SDS011;46681;47.696;9.140;2022-12-07T13:58:12;5.60;;;5.10;;
60847;SDS011;46681;47.696;9.140;2022-12-07T14:00:41;4.67;;;4.33;;
60847;SDS011;46681;47.696;9.140;2022-12-07T14:05:41;6.63;;;5.90;;
60847;SDS011;46681;47.696;9.140;2022-12-07T14:10:53;6.43;;;4.83;;
60847;SDS011;46681;47.696;9.140;2022-12-07T14:16:21;23.97;;;17.40;;
60847;SDS011;46681;47.696;9.140;2022-12-07T14:18:49;17.17;;;10.27;;
60847;SDS011;46681;47.696;9.140;2022-12-07T14:21:16;14.53;;;10.20;;
60847;SDS011;46681;47.696;9.140;2022-12-07T14:23:46;13.67;;;10.57;;
60847;SDS011;46681;47.696;9.140;2022-12-07T14:26:46;11.90;;;9.73;;
60847;SDS011;46681;47.696;9.140;2022-12-07T14:31:51;12.90;;;9.50;;
60847;SDS011;46681;47.696;9.140;2022-12-07T14:34:22;14.07;;;9.40;;
60847;SDS011;46681;47.696;9.140;2022-12-07T14:36:51;12.40;;;8.90;;
60847;SDS011;46681;47.696;9.140;2022-12-07T14:39:17;9.80;;;8.57;;
60847;SDS011;46681;47.696;9.140;2022-12-07T14:41:42;10.23;;;8.67;;
60847;SDS011;46681;47.696;9.140;2022-12-07T14:44:12;10.13;;;8.43;;
60847;SDS011;46681;47.696;9.140;2022-12-07T14:46:38;10.47;;;8.80;;
60847;SDS011;46681;47.696;9.140;2022-12-07T14:49:06;10.20;;;8.53;;
60847;SDS011;46681;47.696;9.140;2022-12-07T14:51:33;10.47;;;7.57;;
60847;SDS011;46681;47.696;9.140;2022-12-07T14:56:58;10.20;;;8.63;;
60847;SDS011;46681;47.696;9.140;2022-12-07T14:59:24;10.20;;;8.47;;
60847;SDS011;46681;47.696;9.140;2022-12-07T15:01:51;11.03;;;8.93;;
60847;SDS011;46681;47.696;9.140;2022-12-07T15:04:20;8.97;;;7.73;;
60847;SDS011;46681;47.696;9.140;2022-12-07T15:07:00;9.57;;;8.33;;
60847;SDS011;46681;47.696;9.140;2022-12-07T15:09:28;9.20;;;7.97;;
60847;SDS011;46681;47.696;9.140;2022-12-07T15:11:56;9.27;;;8.27;;
60847;SDS011;46681;47.696;9.140;2022-12-07T15:14:23;9.00;;;7.97;;
60847;SDS011;46681;47.696;9.140;2022-12-07T15:16:51;8.90;;;7.17;;
60847;SDS011;46681;47.696;9.140;2022-12-07T15:19:19;8.80;;;7.53;;
60847;SDS011;46681;47.696;9.140;2022-12-07T15:21:49;7.53;;;6.73;;
60847;SDS011;46681;47.696;9.140;2022-12-07T15:24:15;8.00;;;7.20;;
60847;SDS011;46681;47.696;9.140;2022-12-07T15:26:43;8.13;;;7.27;;
60847;SDS011;46681;47.696;9.140;2022-12-07T15:29:11;8.00;;;7.20;;
60847;SDS011;46681;47.696;9.140;2022-12-07T15:31:38;7.60;;;6.60;;
60847;SDS011;46681;47.696;9.140;2022-12-07T15:34:04;8.13;;;7.13;;
60847;SDS011;46681;47.696;9.140;2022-12-07T15:36:31;8.87;;;7.10;;
60847;SDS011;46681;47.696;9.140;2022-12-07T15:38:58;7.23;;;6.53;;
60847;SDS011;46681;47.696;9.140;2022-12-07T15:41:27;8.37;;;7.40;;
60847;SDS011;46681;47.696;9.140;2022-12-07T15:43:53;8.23;;;6.83;;
60847;SDS011;46681;47.696;9.140;2022-12-07T15:46:19;9.07;;;7.20;;
60847;SDS011;46681;47.696;9.140;2022-12-07T15:48:45;7.87;;;7.07;;
60847;SDS011;46681;47.696;9.140;2022-12-07T15:51:15;7.17;;;6.47;;
60847;SDS011;46681;47.696;9.140;2022-12-07T15:53:41;8.30;;;6.43;;
60847;SDS011;46681;47.696;9.140;2022-12-07T15:56:08;8.03;;;7.23;;
60847;SDS011;46681;47.696;9.140;2022-12-07T15:58:37;6.90;;;6.20;;
60847;SDS011;46681;47.696;9.140;2022-12-07T16:01:18;8.03;;;6.73;;
60847;SDS011;46681;47.696;9.140;2022-12-07T16:03:45;8.83;;;7.17;;
60847;SDS011;46681;47.696;9.140;2022-12-07T16:06:14;7.23;;;6.50;;
60847;SDS011;46681;47.696;9.140;2022-12-07T16:08:42;7.70;;;6.57;;
60847;SDS011;46681;47.696;9.140;2022-12-07T16:11:12;7.67;;;6.33;;
60847;SDS011;46681;47.696;9.140;2022-12-07T16:13:44;7.00;;;6.23;;
60847;SDS011;46681;47.696;9.140;2022-12-07T16:16:11;8.57;;;6.50;;
60847;SDS011;46681;47.696;9.140;2022-12-07T16:18:44;7.77;;;6.33;;
60847;SDS011;46681;47.696;9.140;2022-12-07T16:21:11;9.30;;;7.30;;
60847;SDS011;46681;47.696;9.140;2022-12-07T16:23:39;8.13;;;7.33;;
60847;SDS011;46681;47.696;9.140;2022-12-07T16:26:12;10.70;;;6.53;;
60847;SDS011;46681;47.696;9.140;2022-12-07T16:28:44;8.80;;;6.73;;
60847;SDS011;46681;47.696;9.140;2022-12-07T16:31:14;8.87;;;7.57;;
60847;SDS011;46681;47.696;9.140;2022-12-07T16:33:43;11.40;;;7.10;;
60847;SDS011;46681;47.696;9.140;2022-12-07T16:36:11;19.90;;;8.33;;
60847;SDS011;46681;47.696;9.140;2022-12-07T16:38:40;12.90;;;7.57;;
60847;SDS011;46681;47.696;9.140;2022-12-07T16:41:09;9.27;;;7.33;;
60847;SDS011;46681;47.696;9.140;2022-12-07T16:43:36;10.90;;;7.17;;
60847;SDS011;46681;47.696;9.140;2022-12-07T16:46:02;12.07;;;7.97;;
60847;SDS011;46681;47.696;9.140;2022-12-07T16:48:31;12.30;;;7.70;;
60847;SDS011;46681;47.696;9.140;2022-12-07T16:51:02;9.33;;;7.20;;
60847;SDS011;46681;47.696;9.140;2022-12-07T16:53:30;9.30;;;7.27;;
60847;SDS011;46681;47.696;9.140;2022-12-07T16:55:59;9.73;;;7.07;;
60847;SDS011;46681;47.696;9.140;2022-12-07T16:58:27;7.90;;;7.10;;
60847;SDS011;46681;47.696;9.140;2022-12-07T17:00:53;8.37;;;6.57;;
60847;SDS011;46681;47.696;9.140;2022-12-07T17:03:21;8.10;;;6.93;;
60847;SDS011;46681;47.696;9.140;2022-12-07T17:05:53;86.57;;;32.43;;
60847;SDS011;46681;47.696;9.140;2022-12-07T17:08:40;92.20;;;34.03;;
60847;SDS011;46681;47.696;9.140;2022-12-07T17:11:11;365.23;;;129.87;;
60847;SDS011;46681;47.696;9.140;2022-12-07T17:13:41;277.93;;;96.10;;
60847;SDS011;46681;47.696;9.140;2022-12-07T17:16:07;230.40;;;81.90;;
60847;SDS011;46681;47.696;9.140;2022-12-07T17:18:35;211.07;;;72.33;;
60847;SDS011;46681;47.696;9.140;2022-12-07T17:21:05;175.53;;;65.40;;